sensor_id;sensor_type;location;lat;lon;timestamp;pressure;altitude;pressure_sealevel;temperature;humidity
6942;BME280;3510;43.200;27.920;2023-04-20T00:01:04;100493.88;;;19.33;50.19
6942;BME280;3510;43.200;27.920;2023-04-20T00:03:31;100491.41;;;19.54;49.62
6942;BME280;3510;43.200;27.920;2023-04-20T00:05:59;100453.28;;;18.99;50.19
6942;BME280;3510;43.200;27.920;2023-04-20T00:08:26;100482.41;;;19.63;49.50
6942;BME280;3510;43.200;27.920;2023-04-20T00:10:54;100480.97;;;19.50;49.52
6942;BME280;3510;43.200;27.920;2023-04-20T00:13:20;100484.25;;;19.28;50.40
6942;BME280;3510;43.200;27.920;2023-04-20T00:15:47;100487.38;;;19.21;50.49
6942;BME280;3510;43.200;27.920;2023-04-20T00:18:13;100491.72;;;19.23;50.63
6942;BME280;3510;43.200;27.920;2023-04-20T00:20:40;100487.22;;;19.37;50.53
6942;BME280;3510;43.200;27.920;2023-04-20T00:23:06;100482.13;;;19.18;50.87
6942;BME280;3510;43.200;27.920;2023-04-20T00:25:33;100485.81;;;19.24;50.64
6942;BME280;3510;43.200;27.920;2023-04-20T00:28:01;100483.88;;;19.38;50.36
6942;BME280;3510;43.200;27.920;2023-04-20T00:30:28;100481.81;;;19.29;50.15
6942;BME280;3510;43.200;27.920;2023-04-20T00:32:54;100494.06;;;19.38;50.13
6942;BME280;3510;43.200;27.920;2023-04-20T00:35:20;100481.84;;;19.50;49.84
6942;BME280;3510;43.200;27.920;2023-04-20T00:37:47;100485.56;;;19.38;50.41
6942;BME280;3510;43.200;27.920;2023-04-20T00:40:13;100471.78;;;19.34;50.60
6942;BME280;3510;43.200;27.920;2023-04-20T00:42:40;100483.88;;;19.19;51.24
6942;BME280;3510;43.200;27.920;2023-04-20T00:45:08;100475.75;;;19.47;50.63
6942;BME280;3510;43.200;27.920;2023-04-20T00:47:35;100479.56;;;19.37;50.61
6942;BME280;3510;43.200;27.920;2023-04-20T00:50:01;100476.22;;;19.38;50.83
6942;BME280;3510;43.200;27.920;2023-04-20T00:52:28;100475.97;;;19.32;51.12
6942;BME280;3510;43.200;27.920;2023-04-20T00:54:54;100472.94;;;19.41;51.11
6942;BME280;3510;43.200;27.920;2023-04-20T00:57:21;100471.31;;;19.23;51.70
6942;BME280;3510;43.200;27.920;2023-04-20T00:59:48;100473.72;;;19.20;51.92
6942;BME280;3510;43.200;27.920;2023-04-20T01:02:17;100475.00;;;19.69;50.33
6942;BME280;3510;43.200;27.920;2023-04-20T01:04:43;100468.59;;;19.59;50.85
6942;BME280;3510;43.200;27.920;2023-04-20T01:07:10;100465.97;;;19.57;50.73
6942;BME280;3510;43.200;27.920;2023-04-20T01:09:37;100459.81;;;19.93;49.80
6942;BME280;3510;43.200;27.920;2023-04-20T01:12:04;100464.63;;;20.06;49.55
6942;BME280;3510;43.200;27.920;2023-04-20T01:14:30;100460.84;;;19.37;51.01
6942;BME280;3510;43.200;27.920;2023-04-20T01:16:57;100462.50;;;19.55;50.54
6942;BME280;3510;43.200;27.920;2023-04-20T01:19:25;100459.31;;;19.40;50.85
6942;BME280;3510;43.200;27.920;2023-04-20T01:21:52;100461.53;;;19.32;51.19
6942;BME280;3510;43.200;27.920;2023-04-20T01:24:21;100464.06;;;19.32;51.02
6942;BME280;3510;43.200;27.920;2023-04-20T01:26:47;100468.84;;;19.25;51.20
6942;BME280;3510;43.200;27.920;2023-04-20T01:29:14;100469.81;;;19.67;50.12
6942;BME280;3510;43.200;27.920;2023-04-20T01:31:40;100466.97;;;19.61;49.89
6942;BME280;3510;43.200;27.920;2023-04-20T01:34:07;100471.09;;;19.38;50.91
6942;BME280;3510;43.200;27.920;2023-04-20T01:36:33;100466.50;;;19.29;51.01
6942;BME280;3510;43.200;27.920;2023-04-20T01:39:00;100471.88;;;19.36;51.33
6942;BME280;3510;43.200;27.920;2023-04-20T01:41:27;100464.81;;;19.30;51.81
6942;BME280;3510;43.200;27.920;2023-04-20T01:43:54;100466.50;;;19.29;51.32
6942;BME280;3510;43.200;27.920;2023-04-20T01:46:20;100456.34;;;19.31;51.16
6942;BME280;3510;43.200;27.920;2023-04-20T01:48:47;100457.00;;;19.27;51.43
6942;BME280;3510;43.200;27.920;2023-04-20T01:51:13;100458.22;;;19.16;51.45
6942;BME280;3510;43.200;27.920;2023-04-20T01:53:40;100463.19;;;19.13;51.47
6942;BME280;3510;43.200;27.920;2023-04-20T01:56:07;100459.31;;;19.40;50.79
6942;BME280;3510;43.200;27.920;2023-04-20T01:58:34;100453.16;;;19.56;50.39
6942;BME280;3510;43.200;27.920;2023-04-20T02:01:01;100467.97;;;19.63;50.14
6942;BME280;3510;43.200;27.920;2023-04-20T02:03:27;100474.84;;;19.46;50.51
6942;BME280;3510;43.200;27.920;2023-04-20T02:05:54;100475.34;;;19.18;51.33
6942;BME280;3510;43.200;27.920;2023-04-20T02:08:20;100475.28;;;19.17;51.24
6942;BME280;3510;43.200;27.920;2023-04-20T02:10:47;100477.63;;;19.31;50.90
6942;BME280;3510;43.200;27.920;2023-04-20T02:13:13;100471.66;;;19.12;51.44
6942;BME280;3510;43.200;27.920;2023-04-20T02:15:42;100472.19;;;19.24;51.09
6942;BME280;3510;43.200;27.920;2023-04-20T02:18:08;100473.19;;;19.27;50.91
6942;BME280;3510;43.200;27.920;2023-04-20T02:20:34;100470.66;;;19.08;51.10
6942;BME280;3510;43.200;27.920;2023-04-20T02:23:01;100476.91;;;19.15;51.23
6942;BME280;3510;43.200;27.920;2023-04-20T02:25:27;100480.19;;;18.75;52.14
6942;BME280;3510;43.200;27.920;2023-04-20T02:27:54;100472.72;;;19.55;50.35
6942;BME280;3510;43.200;27.920;2023-04-20T02:30:21;100467.94;;;19.24;51.09
6942;BME280;3510;43.200;27.920;2023-04-20T02:32:48;100469.59;;;19.03;51.67
6942;BME280;3510;43.200;27.920;2023-04-20T02:35:15;100468.97;;;19.08;51.54
6942;BME280;3510;43.200;27.920;2023-04-20T02:37:41;100461.75;;;19.39;50.71
6942;BME280;3510;43.200;27.920;2023-04-20T02:40:08;100461.66;;;18.97;51.95
6942;BME280;3510;43.200;27.920;2023-04-20T02:42:35;100465.22;;;19.20;51.08
6942;BME280;3510;43.200;27.920;2023-04-20T02:45:01;100463.31;;;19.35;50.89
6942;BME280;3510;43.200;27.920;2023-04-20T02:47:28;100461.53;;;19.53;50.29
6942;BME280;3510;43.200;27.920;2023-04-20T02:49:56;100462.97;;;19.66;50.01
6942;BME280;3510;43.200;27.920;2023-04-20T02:52:22;100456.41;;;19.92;49.59
6942;BME280;3510;43.200;27.920;2023-04-20T02:54:49;100460.09;;;19.58;50.25
6942;BME280;3510;43.200;27.920;2023-04-20T02:57:15;100450.91;;;19.62;50.26
6942;BME280;3510;43.200;27.920;2023-04-20T02:59:42;100454.13;;;19.79;49.86
6942;BME280;3510;43.200;27.920;2023-04-20T03:02:08;100451.56;;;19.39;50.83
6942;BME280;3510;43.200;27.920;2023-04-20T03:04:35;100446.03;;;19.68;50.03
6942;BME280;3510;43.200;27.920;2023-04-20T03:07:05;100456.50;;;19.15;51.47
6942;BME280;3510;43.200;27.920;2023-04-20T03:09:31;100450.00;;;19.62;50.25
6942;BME280;3510;43.200;27.920;2023-04-20T03:11:58;100453.75;;;19.50;50.58
6942;BME280;3510;43.200;27.920;2023-04-20T03:14:26;100443.91;;;19.58;50.29
6942;BME280;3510;43.200;27.920;2023-04-20T03:16:53;100452.78;;;19.66;49.91
6942;BME280;3510;43.200;27.920;2023-04-20T03:19:19;100453.00;;;19.32;50.89
6942;BME280;3510;43.200;27.920;2023-04-20T03:21:46;100463.03;;;19.48;50.59
6942;BME280;3510;43.200;27.920;2023-04-20T03:24:14;100462.41;;;19.54;50.39
6942;BME280;3510;43.200;27.920;2023-04-20T03:26:41;100462.41;;;19.54;50.45
6942;BME280;3510;43.200;27.920;2023-04-20T03:29:07;100457.53;;;19.99;49.62
6942;BME280;3510;43.200;27.920;2023-04-20T03:31:34;100463.72;;;20.05;49.63
6942;BME280;3510;43.200;27.920;2023-04-20T03:34:00;100449.91;;;20.21;49.25
6942;BME280;3510;43.200;27.920;2023-04-20T03:36:27;100445.97;;;20.09;49.11
6942;BME280;3510;43.200;27.920;2023-04-20T03:38:53;100442.84;;;20.82;47.41
6942;BME280;3510;43.200;27.920;2023-04-20T03:41:21;100448.97;;;19.98;49.09
6942;BME280;3510;43.200;27.920;2023-04-20T03:43:47;100443.50;;;19.89;49.68
6942;BME280;3510;43.200;27.920;2023-04-20T03:46:14;100448.97;;;19.77;49.59
6942;BME280;3510;43.200;27.920;2023-04-20T03:48:40;100455.38;;;20.10;49.27
6942;BME280;3510;43.200;27.920;2023-04-20T03:51:07;100457.41;;;19.96;49.60
6942;BME280;3510;43.200;27.920;2023-04-20T03:53:33;100462.69;;;19.60;50.35
6942;BME280;3510;43.200;27.920;2023-04-20T03:56:00;100461.22;;;19.65;50.18
6942;BME280;3510;43.200;27.920;2023-04-20T03:58:27;100455.13;;;19.82;49.90
6942;BME280;3510;43.200;27.920;2023-04-20T04:00:59;100455.88;;;19.80;50.01
6942;BME280;3510;43.200;27.920;2023-04-20T04:03:26;100460.34;;;19.65;50.31
6942;BME280;3510;43.200;27.920;2023-04-20T04:05:52;100455.47;;;19.69;50.31
6942;BME280;3510;43.200;27.920;2023-04-20T04:08:18;100460.81;;;19.56;50.99
6942;BME280;3510;43.200;27.920;2023-04-20T04:10:45;100464.66;;;19.46;51.11
6942;BME280;3510;43.200;27.920;2023-04-20T04:13:11;100461.78;;;19.19;51.80
6942;BME280;3510;43.200;27.920;2023-04-20T04:15:39;100455.25;;;19.65;50.66
6942;BME280;3510;43.200;27.920;2023-04-20T04:18:05;100462.75;;;19.81;50.26
6942;BME280;3510;43.200;27.920;2023-04-20T04:20:32;100460.31;;;20.48;49.03
6942;BME280;3510;43.200;27.920;2023-04-20T04:22:58;100462.69;;;20.44;49.35
6942;BME280;3510;43.200;27.920;2023-04-20T04:25:25;100427.88;;;20.92;47.92
6942;BME280;3510;43.200;27.920;2023-04-20T04:27:52;100428.53;;;21.35;46.98
6942;BME280;3510;43.200;27.920;2023-04-20T04:30:19;100466.09;;;21.12;47.17
6942;BME280;3510;43.200;27.920;2023-04-20T04:32:47;100436.16;;;21.09;47.27
6942;BME280;3510;43.200;27.920;2023-04-20T04:35:14;100464.19;;;21.80;45.88
6942;BME280;3510;43.200;27.920;2023-04-20T04:37:41;100469.00;;;21.45;46.07
6942;BME280;3510;43.200;27.920;2023-04-20T04:40:08;100464.19;;;21.30;46.34
6942;BME280;3510;43.200;27.920;2023-04-20T04:42:36;100471.69;;;20.77;47.73
6942;BME280;3510;43.200;27.920;2023-04-20T04:45:03;100460.56;;;20.99;47.32
6942;BME280;3510;43.200;27.920;2023-04-20T04:47:33;100463.66;;;20.25;48.62
6942;BME280;3510;43.200;27.920;2023-04-20T04:50:02;100474.06;;;20.09;49.22
6942;BME280;3510;43.200;27.920;2023-04-20T04:52:30;100466.41;;;20.73;47.95
6942;BME280;3510;43.200;27.920;2023-04-20T04:54:57;100461.50;;;20.79;47.40
6942;BME280;3510;43.200;27.920;2023-04-20T04:57:24;100449.28;;;20.06;48.10
6942;BME280;3510;43.200;27.920;2023-04-20T04:59:51;100471.81;;;20.58;47.88
6942;BME280;3510;43.200;27.920;2023-04-20T05:02:18;100471.03;;;20.61;47.42
6942;BME280;3510;43.200;27.920;2023-04-20T05:04:45;100482.38;;;21.36;45.95
6942;BME280;3510;43.200;27.920;2023-04-20T05:07:13;100493.00;;;21.24;46.50
6942;BME280;3510;43.200;27.920;2023-04-20T05:09:40;100455.03;;;20.89;46.49
6942;BME280;3510;43.200;27.920;2023-04-20T05:12:07;100468.81;;;21.16;46.04
6942;BME280;3510;43.200;27.920;2023-04-20T05:14:33;100494.16;;;20.86;46.80
6942;BME280;3510;43.200;27.920;2023-04-20T05:17:00;100483.56;;;20.32;47.81
6942;BME280;3510;43.200;27.920;2023-04-20T05:19:27;100484.47;;;20.77;47.45
6942;BME280;3510;43.200;27.920;2023-04-20T05:21:54;100480.56;;;19.60;50.43
6942;BME280;3510;43.200;27.920;2023-04-20T05:24:22;100491.81;;;20.05;49.93
6942;BME280;3510;43.200;27.920;2023-04-20T05:26:49;100482.16;;;19.98;50.08
6942;BME280;3510;43.200;27.920;2023-04-20T05:29:15;100456.69;;;20.00;49.86
6942;BME280;3510;43.200;27.920;2023-04-20T05:31:42;100486.00;;;19.68;51.42
6942;BME280;3510;43.200;27.920;2023-04-20T05:34:09;100487.03;;;19.92;50.11
6942;BME280;3510;43.200;27.920;2023-04-20T05:36:36;100476.66;;;20.31;49.48
6942;BME280;3510;43.200;27.920;2023-04-20T05:39:03;100488.34;;;20.68;48.69
6942;BME280;3510;43.200;27.920;2023-04-20T05:41:31;100489.50;;;20.98;48.13
6942;BME280;3510;43.200;27.920;2023-04-20T05:43:58;100485.91;;;20.93;47.96
6942;BME280;3510;43.200;27.920;2023-04-20T05:46:25;100487.31;;;20.85;48.36
6942;BME280;3510;43.200;27.920;2023-04-20T05:48:53;100494.69;;;21.00;48.28
6942;BME280;3510;43.200;27.920;2023-04-20T05:51:20;100484.13;;;20.47;49.43
6942;BME280;3510;43.200;27.920;2023-04-20T05:53:47;100465.31;;;20.45;48.80
6942;BME280;3510;43.200;27.920;2023-04-20T05:56:13;100473.84;;;20.02;49.86
6942;BME280;3510;43.200;27.920;2023-04-20T05:58:41;100497.50;;;19.98;49.83
6942;BME280;3510;43.200;27.920;2023-04-20T06:01:08;100504.47;;;20.23;49.07
6942;BME280;3510;43.200;27.920;2023-04-20T06:03:35;100492.50;;;20.01;49.30
6942;BME280;3510;43.200;27.920;2023-04-20T06:06:02;100470.38;;;20.23;48.45
6942;BME280;3510;43.200;27.920;2023-04-20T06:08:30;100496.78;;;20.65;47.93
6942;BME280;3510;43.200;27.920;2023-04-20T06:10:56;100504.47;;;20.44;48.19
6942;BME280;3510;43.200;27.920;2023-04-20T06:13:23;100473.84;;;20.02;48.96
6942;BME280;3510;43.200;27.920;2023-04-20T06:15:52;100498.66;;;20.69;47.44
6942;BME280;3510;43.200;27.920;2023-04-20T06:18:19;100479.53;;;21.06;46.54
6942;BME280;3510;43.200;27.920;2023-04-20T06:20:54;100374.31;;;20.05;47.75
6942;BME280;3510;43.200;27.920;2023-04-20T06:23:21;100423.06;;;20.33;48.52
6942;BME280;3510;43.200;27.920;2023-04-20T06:25:48;100470.66;;;20.96;47.12
6942;BME280;3510;43.200;27.920;2023-04-20T06:28:15;100448.00;;;20.83;47.71
6942;BME280;3510;43.200;27.920;2023-04-20T06:30:51;100495.31;;;21.41;47.51
6942;BME280;3510;43.200;27.920;2023-04-20T06:33:18;100493.78;;;21.22;47.41
6942;BME280;3510;43.200;27.920;2023-04-20T06:35:45;100500.50;;;21.20;47.28
6942;BME280;3510;43.200;27.920;2023-04-20T06:38:12;100488.47;;;20.93;47.81
6942;BME280;3510;43.200;27.920;2023-04-20T06:40:39;100491.25;;;21.23;47.31
6942;BME280;3510;43.200;27.920;2023-04-20T06:43:05;100484.75;;;21.09;47.44
6942;BME280;3510;43.200;27.920;2023-04-20T06:45:32;100489.91;;;20.87;48.04
6942;BME280;3510;43.200;27.920;2023-04-20T06:48:00;100483.53;;;21.22;47.26
6942;BME280;3510;43.200;27.920;2023-04-20T06:50:27;100490.50;;;21.50;46.86
6942;BME280;3510;43.200;27.920;2023-04-20T06:52:54;100484.22;;;21.40;46.79
6942;BME280;3510;43.200;27.920;2023-04-20T06:55:20;100489.97;;;21.59;46.44
6942;BME280;3510;43.200;27.920;2023-04-20T06:57:47;100467.84;;;21.86;46.05
6942;BME280;3510;43.200;27.920;2023-04-20T07:00:14;100495.75;;;21.29;47.41
6942;BME280;3510;43.200;27.920;2023-04-20T07:02:42;100488.25;;;21.11;48.04
6942;BME280;3510;43.200;27.920;2023-04-20T07:05:10;100494.84;;;21.05;47.93
6942;BME280;3510;43.200;27.920;2023-04-20T07:07:37;100495.09;;;20.88;47.51
6942;BME280;3510;43.200;27.920;2023-04-20T07:10:06;100481.38;;;20.64;47.79
6942;BME280;3510;43.200;27.920;2023-04-20T07:12:34;100423.69;;;20.27;47.66
6942;BME280;3510;43.200;27.920;2023-04-20T07:15:03;100440.22;;;20.58;48.05
6942;BME280;3510;43.200;27.920;2023-04-20T07:17:34;100499.34;;;20.44;48.32
6942;BME280;3510;43.200;27.920;2023-04-20T07:20:01;100461.81;;;19.59;50.37
6942;BME280;3510;43.200;27.920;2023-04-20T07:28:05;100461.31;;;20.74;48.44
6942;BME280;3510;43.200;27.920;2023-04-20T07:33:29;100506.38;;;20.93;48.99
6942;BME280;3510;43.200;27.920;2023-04-20T07:36:11;100409.69;;;20.85;47.88
6942;BME280;3510;43.200;27.920;2023-04-20T07:38:38;100477.81;;;20.83;48.94
6942;BME280;3510;43.200;27.920;2023-04-20T07:43:59;100514.16;;;21.43;47.63
6942;BME280;3510;43.200;27.920;2023-04-20T07:54:23;100509.16;;;21.95;45.67
6942;BME280;3510;43.200;27.920;2023-04-20T08:04:44;100518.88;;;22.06;45.31
6942;BME280;3510;43.200;27.920;2023-04-20T08:07:12;100516.63;;;21.89;45.32
6942;BME280;3510;43.200;27.920;2023-04-20T08:09:39;100506.22;;;21.59;45.48
6942;BME280;3510;43.200;27.920;2023-04-20T08:12:06;100513.59;;;21.75;44.65
6942;BME280;3510;43.200;27.920;2023-04-20T08:14:33;100505.94;;;21.52;45.52
6942;BME280;3510;43.200;27.920;2023-04-20T08:17:02;100499.31;;;21.82;44.80
6942;BME280;3510;43.200;27.920;2023-04-20T08:25:04;100435.09;;;22.89;41.36
6942;BME280;3510;43.200;27.920;2023-04-20T08:27:37;100408.19;;;22.46;42.17
6942;BME280;3510;43.200;27.920;2023-04-20T08:32:49;100456.59;;;22.08;42.99
6942;BME280;3510;43.200;27.920;2023-04-20T08:35:16;100504.75;;;21.42;43.66
6942;BME280;3510;43.200;27.920;2023-04-20T08:37:43;100499.81;;;21.72;43.33
6942;BME280;3510;43.200;27.920;2023-04-20T08:40:12;100516.72;;;21.20;44.61
6942;BME280;3510;43.200;27.920;2023-04-20T08:42:38;100483.78;;;22.03;42.99
6942;BME280;3510;43.200;27.920;2023-04-20T08:45:06;100499.94;;;23.12;41.44
6942;BME280;3510;43.200;27.920;2023-04-20T08:47:34;100481.63;;;22.42;41.80
6942;BME280;3510;43.200;27.920;2023-04-20T08:50:03;100488.47;;;21.40;43.65
6942;BME280;3510;43.200;27.920;2023-04-20T08:52:44;100445.00;;;21.17;43.16
6942;BME280;3510;43.200;27.920;2023-04-20T08:55:19;100380.56;;;21.55;42.23
6942;BME280;3510;43.200;27.920;2023-04-20T08:57:47;100419.97;;;22.39;41.28
6942;BME280;3510;43.200;27.920;2023-04-20T09:00:16;100497.59;;;23.19;40.79
6942;BME280;3510;43.200;27.920;2023-04-20T09:02:50;100425.50;;;22.82;40.43
6942;BME280;3510;43.200;27.920;2023-04-20T09:05:24;100479.25;;;22.49;41.41
6942;BME280;3510;43.200;27.920;2023-04-20T09:07:54;100475.97;;;22.26;41.61
6942;BME280;3510;43.200;27.920;2023-04-20T09:10:23;100488.16;;;22.90;41.08
6942;BME280;3510;43.200;27.920;2023-04-20T09:12:50;100490.50;;;22.82;40.85
6942;BME280;3510;43.200;27.920;2023-04-20T09:15:25;100493.53;;;22.40;42.14
6942;BME280;3510;43.200;27.920;2023-04-20T09:17:52;100511.81;;;21.49;43.67
6942;BME280;3510;43.200;27.920;2023-04-20T09:20:27;100502.28;;;20.76;45.52
6942;BME280;3510;43.200;27.920;2023-04-20T09:22:55;100499.84;;;20.79;45.64
6942;BME280;3510;43.200;27.920;2023-04-20T09:25:24;100513.66;;;21.53;44.00
6942;BME280;3510;43.200;27.920;2023-04-20T09:27:54;100494.91;;;21.78;43.57
6942;BME280;3510;43.200;27.920;2023-04-20T09:30:21;100500.63;;;22.49;42.01
6942;BME280;3510;43.200;27.920;2023-04-20T09:32:48;100506.75;;;22.26;42.28
6942;BME280;3510;43.200;27.920;2023-04-20T09:35:25;100495.56;;;22.79;41.57
6942;BME280;3510;43.200;27.920;2023-04-20T09:37:52;100513.19;;;22.68;41.66
6942;BME280;3510;43.200;27.920;2023-04-20T09:40:24;100497.34;;;21.75;43.12
6942;BME280;3510;43.200;27.920;2023-04-20T09:42:52;100510.53;;;21.86;43.57
6942;BME280;3510;43.200;27.920;2023-04-20T09:45:20;100499.69;;;21.94;43.69
6942;BME280;3510;43.200;27.920;2023-04-20T09:47:47;100496.47;;;22.53;42.63
6942;BME280;3510;43.200;27.920;2023-04-20T09:50:16;100507.88;;;22.10;43.53
6942;BME280;3510;43.200;27.920;2023-04-20T09:52:53;100480.53;;;21.83;43.31
6942;BME280;3510;43.200;27.920;2023-04-20T09:55:25;100380.50;;;21.53;43.48
6942;BME280;3510;43.200;27.920;2023-04-20T09:57:56;100518.06;;;21.81;44.25
6942;BME280;3510;43.200;27.920;2023-04-20T10:00:38;100520.44;;;20.82;45.78
6942;BME280;3510;43.200;27.920;2023-04-20T10:03:06;100473.31;;;20.32;46.53
6942;BME280;3510;43.200;27.920;2023-04-20T10:08:10;100482.97;;;22.06;42.14
6942;BME280;3510;43.200;27.920;2023-04-20T10:10:45;100436.69;;;21.74;42.67
6942;BME280;3510;43.200;27.920;2023-04-20T10:13:13;100516.16;;;22.54;42.29
6942;BME280;3510;43.200;27.920;2023-04-20T10:15:41;100439.00;;;21.92;42.39
6942;BME280;3510;43.200;27.920;2023-04-20T10:20:49;100517.31;;;22.63;42.35
6942;BME280;3510;43.200;27.920;2023-04-20T10:36:40;100509.09;;;22.74;41.51
6942;BME280;3510;43.200;27.920;2023-04-20T10:39:16;100494.19;;;22.09;42.10
6942;BME280;3510;43.200;27.920;2023-04-20T10:44:18;100494.28;;;20.89;44.31
6942;BME280;3510;43.200;27.920;2023-04-20T10:51:58;100460.75;;;21.54;43.54
6942;BME280;3510;43.200;27.920;2023-04-20T10:54:34;100464.53;;;21.39;44.01
6942;BME280;3510;43.200;27.920;2023-04-20T10:57:04;100508.44;;;21.74;43.66
6942;BME280;3510;43.200;27.920;2023-04-20T10:59:32;100529.47;;;22.42;42.41
6942;BME280;3510;43.200;27.920;2023-04-20T11:02:06;100506.13;;;22.07;42.79
6942;BME280;3510;43.200;27.920;2023-04-20T11:04:38;100465.97;;;22.33;42.36
6942;BME280;3510;43.200;27.920;2023-04-20T11:07:09;100458.53;;;21.88;42.42
6942;BME280;3510;43.200;27.920;2023-04-20T11:09:38;100524.91;;;22.60;42.09
6942;BME280;3510;43.200;27.920;2023-04-20T11:12:08;100518.56;;;23.05;41.04
6942;BME280;3510;43.200;27.920;2023-04-20T11:14:38;100522.94;;;21.99;41.80
6942;BME280;3510;43.200;27.920;2023-04-20T11:17:06;100511.41;;;21.86;42.29
6942;BME280;3510;43.200;27.920;2023-04-20T11:19:34;100531.28;;;21.93;42.28
6942;BME280;3510;43.200;27.920;2023-04-20T11:22:02;100508.22;;;22.73;40.61
6942;BME280;3510;43.200;27.920;2023-04-20T11:24:33;100489.34;;;23.00;39.38
6942;BME280;3510;43.200;27.920;2023-04-20T11:27:01;100487.84;;;22.51;39.77
6942;BME280;3510;43.200;27.920;2023-04-20T11:29:30;100509.94;;;22.74;40.13
6942;BME280;3510;43.200;27.920;2023-04-20T11:31:58;100497.13;;;22.74;40.39
6942;BME280;3510;43.200;27.920;2023-04-20T11:34:26;100470.84;;;22.83;39.42
6942;BME280;3510;43.200;27.920;2023-04-20T11:36:53;100493.63;;;23.62;38.35
6942;BME280;3510;43.200;27.920;2023-04-20T11:39:22;100493.09;;;23.74;38.33
6942;BME280;3510;43.200;27.920;2023-04-20T11:41:51;100505.91;;;23.42;38.98
6942;BME280;3510;43.200;27.920;2023-04-20T11:44:19;100519.78;;;23.48;38.48
6942;BME280;3510;43.200;27.920;2023-04-20T11:46:46;100506.03;;;23.15;39.32
6942;BME280;3510;43.200;27.920;2023-04-20T11:49:15;100481.88;;;24.05;36.85
6942;BME280;3510;43.200;27.920;2023-04-20T11:51:42;100496.19;;;23.31;38.36
6942;BME280;3510;43.200;27.920;2023-04-20T11:54:09;100441.97;;;22.90;39.14
6942;BME280;3510;43.200;27.920;2023-04-20T11:56:36;100487.84;;;23.08;39.37
6942;BME280;3510;43.200;27.920;2023-04-20T11:59:05;100423.91;;;22.28;40.49
6942;BME280;3510;43.200;27.920;2023-04-20T12:02:08;100438.97;;;22.17;41.15
6942;BME280;3510;43.200;27.920;2023-04-20T12:04:35;100423.06;;;21.75;41.49
6942;BME280;3510;43.200;27.920;2023-04-20T12:07:03;100508.72;;;22.09;41.57
6942;BME280;3510;43.200;27.920;2023-04-20T12:09:30;100515.41;;;22.04;40.30
6942;BME280;3510;43.200;27.920;2023-04-20T12:12:11;100455.53;;;22.56;39.28
6942;BME280;3510;43.200;27.920;2023-04-20T12:14:38;100497.06;;;23.63;38.04
6942;BME280;3510;43.200;27.920;2023-04-20T12:17:05;100495.94;;;23.53;38.43
6942;BME280;3510;43.200;27.920;2023-04-20T12:19:38;100505.03;;;22.01;40.71
6942;BME280;3510;43.200;27.920;2023-04-20T12:22:04;100442.00;;;21.80;40.96
6942;BME280;3510;43.200;27.920;2023-04-20T12:24:31;100492.03;;;22.20;40.70
6942;BME280;3510;43.200;27.920;2023-04-20T12:26:58;100485.94;;;22.43;40.30
6942;BME280;3510;43.200;27.920;2023-04-20T12:29:24;100489.88;;;22.61;39.82
6942;BME280;3510;43.200;27.920;2023-04-20T12:31:51;100435.69;;;22.21;40.26
6942;BME280;3510;43.200;27.920;2023-04-20T12:34:18;100473.81;;;21.13;42.56
6942;BME280;3510;43.200;27.920;2023-04-20T12:36:47;100500.00;;;21.53;42.36
6942;BME280;3510;43.200;27.920;2023-04-20T12:39:14;100551.97;;;21.50;42.09
6942;BME280;3510;43.200;27.920;2023-04-20T12:41:41;100540.94;;;21.77;41.17
6942;BME280;3510;43.200;27.920;2023-04-20T12:44:08;100468.78;;;22.42;40.13
6942;BME280;3510;43.200;27.920;2023-04-20T12:46:37;100456.97;;;22.19;40.45
6942;BME280;3510;43.200;27.920;2023-04-20T12:49:04;100491.78;;;22.68;40.09
6942;BME280;3510;43.200;27.920;2023-04-20T12:51:31;100472.03;;;22.65;39.28
6942;BME280;3510;43.200;27.920;2023-04-20T12:53:59;100468.50;;;22.62;39.42
6942;BME280;3510;43.200;27.920;2023-04-20T12:56:26;100474.75;;;22.99;39.14
6942;BME280;3510;43.200;27.920;2023-04-20T12:58:52;100469.22;;;22.85;39.33
6942;BME280;3510;43.200;27.920;2023-04-20T13:01:20;100457.56;;;22.12;40.91
6942;BME280;3510;43.200;27.920;2023-04-20T13:03:49;100478.34;;;21.94;41.45
6942;BME280;3510;43.200;27.920;2023-04-20T13:06:16;100482.56;;;22.73;39.77
6942;BME280;3510;43.200;27.920;2023-04-20T13:08:42;100506.81;;;21.52;42.34
6942;BME280;3510;43.200;27.920;2023-04-20T13:11:11;100475.47;;;21.59;42.02
6942;BME280;3510;43.200;27.920;2023-04-20T13:13:40;100468.69;;;21.61;42.03
6942;BME280;3510;43.200;27.920;2023-04-20T13:16:07;100501.88;;;21.82;41.86
6942;BME280;3510;43.200;27.920;2023-04-20T13:18:34;100450.13;;;21.67;41.73
6942;BME280;3510;43.200;27.920;2023-04-20T13:21:01;100473.94;;;21.64;42.49
6942;BME280;3510;43.200;27.920;2023-04-20T13:34:51;100494.38;;;23.58;39.28
6942;BME280;3510;43.200;27.920;2023-04-20T13:37:18;100491.91;;;21.91;41.97
6942;BME280;3510;43.200;27.920;2023-04-20T13:39:52;100487.00;;;22.80;40.62
6942;BME280;3510;43.200;27.920;2023-04-20T13:42:18;100475.44;;;22.64;40.63
6942;BME280;3510;43.200;27.920;2023-04-20T13:44:47;100522.06;;;21.49;42.60
6942;BME280;3510;43.200;27.920;2023-04-20T13:47:16;100478.31;;;21.67;42.60
6942;BME280;3510;43.200;27.920;2023-04-20T13:49:43;100497.56;;;21.81;42.09
6942;BME280;3510;43.200;27.920;2023-04-20T13:52:25;100468.34;;;21.50;42.38
6942;BME280;3510;43.200;27.920;2023-04-20T13:54:52;100394.66;;;20.94;42.66
6942;BME280;3510;43.200;27.920;2023-04-20T13:57:19;100454.28;;;21.15;42.40
6942;BME280;3510;43.200;27.920;2023-04-20T13:59:46;100491.91;;;21.40;43.17
6942;BME280;3510;43.200;27.920;2023-04-20T14:02:13;100520.28;;;21.24;43.58
6942;BME280;3510;43.200;27.920;2023-04-20T14:04:49;100486.19;;;21.47;43.49
6942;BME280;3510;43.200;27.920;2023-04-20T14:07:18;100502.44;;;21.49;43.39
6942;BME280;3510;43.200;27.920;2023-04-20T14:09:47;100482.66;;;21.21;43.74
6942;BME280;3510;43.200;27.920;2023-04-20T14:12:28;100489.97;;;21.11;44.26
6942;BME280;3510;43.200;27.920;2023-04-20T14:15:01;100475.78;;;21.20;43.70
6942;BME280;3510;43.200;27.920;2023-04-20T14:17:28;100513.47;;;21.00;44.68